Time;durP1;ratioP1;P1;durP2;ratioP2;P2;SDS_P1;SDS_P2;PMS_P1;PMS_P2;Temp;Humidity;BMP_temperature;BMP_pressure;BME280_temperature;BME280_humidity;BME280_pressure;Samples;Min_cycle;Max_cycle;Signal;HPM_P1;HPM_P2
2023/10/15 00:00:59;;;;;;;12.35;2.85;;;;;;;;;;6085243;23;20022;-58
2023/10/15 00:03:53;;;;;;;13.90;2.70;;;;;;;;;;6084408;23;20081;-57
2023/10/15 00:06:41;;;;;;;16.55;2.20;;;;;;;;;;6086398;23;20106;-66
2023/10/15 00:09:34;;;;;;;14.77;2.67;;;;;;;;;;6084973;23;20025;-64
2023/10/15 00:12:21;;;;;;;10.00;2.20;;;;;;;;;;6085019;23;20033;-65
2023/10/15 00:15:19;;;;;;;11.68;2.53;;;;;;;;;;6084701;23;20070;-64
2023/10/15 00:18:07;;;;;;;16.30;2.50;;;;;;;;;;6086218;23;20037;-65
2023/10/15 00:21:12;;;;;;;16.63;2.72;;;;;;;;;;6085487;23;20487;-64
2023/10/15 00:24:02;;;;;;;12.85;2.75;;;;;;;;;;6086173;23;20034;-65
2023/10/15 00:26:54;;;;;;;17.15;2.90;;;;;;;;;;6087303;23;20097;-48
2023/10/15 00:29:41;;;;;;;18.83;2.22;;;;;;;;;;6084692;23;20077;-60
2023/10/15 00:32:35;;;;;;;22.15;2.67;;;;;;;;;;6084114;23;20026;-60
2023/10/15 00:35:25;;;;;;;20.70;2.67;;;;;;;;;;6086274;23;20077;-59
2023/10/15 00:38:16;;;;;;;13.23;3.55;;;;;;;;;;6084849;23;20090;-59
2023/10/15 00:41:14;;;;;;;23.10;2.38;;;;;;;;;;6085785;23;20026;-60
2023/10/15 00:44:01;;;;;;;19.67;3.88;;;;;;;;;;6086370;23;20483;-60
2023/10/15 00:46:55;;;;;;;14.65;2.33;;;;;;;;;;6087306;23;20074;-59
2023/10/15 00:49:44;;;;;;;13.75;2.45;;;;;;;;;;6085505;23;20101;-59
2023/10/15 00:52:43;;;;;;;10.60;2.10;;;;;;;;;;6085708;23;20775;-59
2023/10/15 00:55:35;;;;;;;16.45;2.75;;;;;;;;;;6087083;23;20094;-61
2023/10/15 00:58:38;;;;;;;14.38;2.85;;;;;;;;;;6085535;23;20026;-59
2023/10/15 01:01:34;;;;;;;16.60;2.22;;;;;;;;;;6085106;23;20034;-58
2023/10/15 01:04:25;;;;;;;11.77;2.33;;;;;;;;;;6085871;23;20121;-57
2023/10/15 01:10:03;;;;;;;8.90;1.80;;;;;;;;;;6085858;23;20568;-58
2023/10/15 01:12:49;;;;;;;15.05;2.40;;;;;;;;;;6087724;23;20026;-46
2023/10/15 01:15:48;;;;;;;11.98;2.20;;;;;;;;;;6085863;23;20045;-47
2023/10/15 01:18:32;;;;;;;14.75;2.70;;;;;;;;;;6085644;23;20055;-47
2023/10/15 01:21:32;;;;;;;9.07;2.13;;;;;;;;;;6082775;23;20106;-49
2023/10/15 01:24:20;;;;;;;14.98;2.38;;;;;;;;;;6082614;23;20029;-61
2023/10/15 01:27:14;;;;;;;10.43;2.50;;;;;;;;;;6085211;23;20026;-62
2023/10/15 01:30:00;;;;;;;14.63;2.83;;;;;;;;;;6084133;23;20045;-63
2023/10/15 01:32:54;;;;;;;16.58;2.78;;;;;;;;;;6084322;23;20030;-63
2023/10/15 01:35:44;;;;;;;14.88;2.55;;;;;;;;;;6084648;23;20026;-62
2023/10/15 01:38:35;;;;;;;17.77;2.58;;;;;;;;;;6084249;23;20026;-63
2023/10/15 01:41:25;;;;;;;10.52;1.98;;;;;;;;;;6085563;23;20086;-62
2023/10/15 01:44:20;;;;;;;13.93;2.55;;;;;;;;;;6083326;23;20033;-62
2023/10/15 01:47:07;;;;;;;13.07;2.10;;;;;;;;;;6083778;23;20030;-62
2023/10/15 01:50:08;;;;;;;13.55;2.28;;;;;;;;;;6085142;23;20232;-63
2023/10/15 01:53:04;;;;;;;15.25;2.42;;;;;;;;;;6083428;23;20034;-63
2023/10/15 01:56:02;;;;;;;22.20;2.70;;;;;;;;;;6084919;23;20023;-63
2023/10/15 01:58:55;;;;;;;20.70;2.65;;;;;;;;;;6083652;23;20469;-63
2023/10/15 02:01:49;;;;;;;20.52;2.97;;;;;;;;;;6084262;23;20022;-62
2023/10/15 02:04:44;;;;;;;25.30;3.15;;;;;;;;;;6083927;23;20082;-63
2023/10/15 02:07:23;;;;;;;8.10;1.77;;;;;;;;;;6083882;23;20057;-62
2023/10/15 02:10:16;;;;;;;15.13;2.17;;;;;;;;;;6081093;23;20030;-59
2023/10/15 02:13:04;;;;;;;15.88;2.22;;;;;;;;;;6083178;23;20034;-58
2023/10/15 02:15:57;;;;;;;16.25;1.88;;;;;;;;;;6083654;23;20381;-58
2023/10/15 02:18:51;;;;;;;16.52;2.05;;;;;;;;;;6083993;23;20033;-53
2023/10/15 02:21:51;;;;;;;7.57;1.75;;;;;;;;;;5739314;23;8218739;-59
2023/10/15 02:24:49;;;;;;;11.80;2.67;;;;;;;;;;6087108;23;20022;-57
2023/10/15 02:27:36;;;;;;;12.20;2.30;;;;;;;;;;6086079;23;20030;-63
2023/10/15 02:30:32;;;;;;;10.80;2.25;;;;;;;;;;6086344;23;20506;-65
2023/10/15 02:33:17;;;;;;;12.85;2.22;;;;;;;;;;6085457;23;20031;-65
2023/10/15 02:36:15;;;;;;;16.20;2.30;;;;;;;;;;6085117;23;20038;-65
2023/10/15 02:38:58;;;;;;;9.43;1.88;;;;;;;;;;6085555;23;20026;-66
2023/10/15 02:41:52;;;;;;;15.25;2.08;;;;;;;;;;6084882;23;20484;-65
2023/10/15 02:44:39;;;;;;;17.90;2.45;;;;;;;;;;6086217;23;20767;-65
2023/10/15 02:47:41;;;;;;;9.48;1.70;;;;;;;;;;6086990;23;20421;-62
2023/10/15 02:50:27;;;;;;;12.45;1.90;;;;;;;;;;6085923;23;20266;-49
2023/10/15 02:53:13;;;;;;;13.60;2.05;;;;;;;;;;6086465;23;20464;-49
2023/10/15 02:56:10;;;;;;;12.02;1.83;;;;;;;;;;6085852;23;20476;-46
2023/10/15 02:59:04;;;;;;;13.48;2.13;;;;;;;;;;6085359;23;20026;-48
2023/10/15 03:01:56;;;;;;;8.70;1.83;;;;;;;;;;6086170;23;20073;-47
2023/10/15 03:04:51;;;;;;;8.40;1.98;;;;;;;;;;6085895;23;20053;-60
2023/10/15 03:07:39;;;;;;;11.18;1.90;;;;;;;;;;6086131;23;20552;-62
2023/10/15 03:10:45;;;;;;;12.40;1.75;;;;;;;;;;6088054;23;20101;-62
2023/10/15 03:13:18;;;;;;;8.93;1.55;;;;;;;;;;6086353;23;20036;-62
2023/10/15 03:16:11;;;;;;;12.52;1.45;;;;;;;;;;6086885;23;20582;-62
2023/10/15 03:19:19;;;;;;;9.52;1.83;;;;;;;;;;6082530;23;20018;-62
2023/10/15 03:22:18;;;;;;;5.88;1.58;;;;;;;;;;6086652;23;20019;-61
2023/10/15 03:25:13;;;;;;;9.13;1.40;;;;;;;;;;6085450;23;20118;-59
2023/10/15 03:28:00;;;;;;;5.35;1.27;;;;;;;;;;6085634;23;20026;-58
2023/10/15 03:30:47;;;;;;;5.93;1.33;;;;;;;;;;6085333;23;20026;-57
2023/10/15 03:33:58;;;;;;;5.45;1.58;;;;;;;;;;6085389;23;20484;-59
2023/10/15 03:36:31;;;;;;;11.00;2.33;;;;;;;;;;6084203;23;20082;-57
2023/10/15 03:39:27;;;;;;;11.05;1.90;;;;;;;;;;6083476;23;20030;-57
2023/10/15 03:44:54;;;;;;;13.75;2.17;;;;;;;;;;6086264;23;20023;-57
2023/10/15 03:47:39;;;;;;;9.55;1.63;;;;;;;;;;6085316;23;20026;-58
2023/10/15 03:50:29;;;;;;;11.40;1.60;;;;;;;;;;6085294;23;20097;-57
2023/10/15 03:53:14;;;;;;;3.17;0.80;;;;;;;;;;6085551;23;20027;-57
2023/10/15 03:56:08;;;;;;;7.13;1.42;;;;;;;;;;6086170;23;20030;-57
2023/10/15 03:58:55;;;;;;;3.60;1.00;;;;;;;;;;6086152;23;20074;-50
2023/10/15 04:01:49;;;;;;;1.42;0.77;;;;;;;;;;6084679;23;20074;-48
2023/10/15 04:04:37;;;;;;;4.38;0.73;;;;;;;;;;6084858;23;20062;-51
2023/10/15 04:07:31;;;;;;;4.80;0.55;;;;;;;;;;6086107;23;20022;-46
2023/10/15 04:10:23;;;;;;;4.63;1.00;;;;;;;;;;6086259;23;20022;-65
2023/10/15 04:13:13;;;;;;;3.97;0.68;;;;;;;;;;6085677;23;20058;-49
2023/10/15 04:16:00;;;;;;;1.83;0.45;;;;;;;;;;6084727;23;20029;-50
2023/10/15 04:19:00;;;;;;;1.48;0.50;;;;;;;;;;6084027;23;20033;-53
2023/10/15 04:22:00;;;;;;;2.00;0.50;;;;;;;;;;6084329;23;20532;-51
2023/10/15 04:24:53;;;;;;;4.63;0.60;;;;;;;;;;6084376;23;20317;-51
2023/10/15 04:27:41;;;;;;;2.70;0.60;;;;;;;;;;6085026;23;20368;-53
2023/10/15 04:30:38;;;;;;;2.80;0.52;;;;;;;;;;6083887;23;20473;-60
2023/10/15 04:33:27;;;;;;;1.42;0.45;;;;;;;;;;6083476;23;20058;-62
2023/10/15 04:36:18;;;;;;;1.63;0.70;;;;;;;;;;6085237;23;20800;-60
2023/10/15 04:39:15;;;;;;;1.60;0.30;;;;;;;;;;6086142;23;20026;-60
2023/10/15 04:42:20;;;;;;;2.05;0.32;;;;;;;;;;6085128;23;20023;-60
2023/10/15 04:45:00;;;;;;;3.85;0.98;;;;;;;;;;6084980;23;20026;-61
2023/10/15 04:48:01;;;;;;;4.75;0.80;;;;;;;;;;6086329;23;20085;-52
2023/10/15 04:50:47;;;;;;;2.53;0.60;;;;;;;;;;6085379;23;20461;-64
2023/10/15 04:53:50;;;;;;;2.22;0.68;;;;;;;;;;6087369;23;20026;-64
2023/10/15 04:56:37;;;;;;;2.25;0.98;;;;;;;;;;6085461;23;20033;-64
2023/10/15 04:59:31;;;;;;;3.00;0.50;;;;;;;;;;6085241;23;20026;-64
2023/10/15 05:02:18;;;;;;;4.00;0.80;;;;;;;;;;6084648;23;20081;-65
2023/10/15 05:05:13;;;;;;;4.30;0.80;;;;;;;;;;6085906;23;20445;-49
2023/10/15 05:08:00;;;;;;;2.80;0.75;;;;;;;;;;6084740;23;20026;-51
2023/10/15 05:10:53;;;;;;;4.00;1.20;;;;;;;;;;6087131;23;20027;-53
2023/10/15 05:13:43;;;;;;;9.05;1.50;;;;;;;;;;6087060;23;20074;-50
2023/10/15 05:16:37;;;;;;;2.95;0.80;;;;;;;;;;6087204;23;20037;-64
2023/10/15 05:19:25;;;;;;;2.45;0.90;;;;;;;;;;6085873;23;20025;-46
2023/10/15 05:22:25;;;;;;;3.15;0.90;;;;;;;;;;6085481;23;20022;-49
2023/10/15 05:25:17;;;;;;;6.80;0.77;;;;;;;;;;6084425;23;20018;-49
2023/10/15 05:28:14;;;;;;;5.57;0.80;;;;;;;;;;6086323;23;20033;-48
2023/10/15 05:31:00;;;;;;;4.10;0.75;;;;;;;;;;6084945;23;20026;-50
2023/10/15 05:33:53;;;;;;;5.80;1.15;;;;;;;;;;6085812;23;20026;-52
2023/10/15 05:36:41;;;;;;;7.38;1.02;;;;;;;;;;6084609;23;20030;-53
2023/10/15 05:39:36;;;;;;;1.75;0.70;;;;;;;;;;6084460;23;20023;-51
2023/10/15 05:42:23;;;;;;;2.50;0.80;;;;;;;;;;6083796;23;20074;-60
2023/10/15 05:45:17;;;;;;;3.88;0.80;;;;;;;;;;6085630;23;20742;-52
2023/10/15 05:48:04;;;;;;;3.95;0.65;;;;;;;;;;6085314;23;20093;-52
2023/10/15 05:50:57;;;;;;;3.55;0.90;;;;;;;;;;6085394;23;20022;-54
2023/10/15 05:53:45;;;;;;;7.25;1.10;;;;;;;;;;6085211;23;20569;-54
2023/10/15 05:56:38;;;;;;;2.30;0.75;;;;;;;;;;6084216;23;20796;-52
2023/10/15 05:59:26;;;;;;;9.30;1.05;;;;;;;;;;6086448;23;20469;-51
2023/10/15 06:02:19;;;;;;;3.80;1.27;;;;;;;;;;6086103;23;20073;-64
2023/10/15 06:05:06;;;;;;;5.60;1.02;;;;;;;;;;6086934;23;20082;-66
2023/10/15 06:08:00;;;;;;;2.08;0.75;;;;;;;;;;6088058;23;20338;-66
2023/10/15 06:10:47;;;;;;;3.70;1.00;;;;;;;;;;6086301;23;20512;-65
2023/10/15 06:13:41;;;;;;;5.25;0.90;;;;;;;;;;6085829;23;20082;-65
2023/10/15 06:16:29;;;;;;;5.20;1.05;;;;;;;;;;6082866;23;20026;-64
2023/10/15 06:19:03;;;;;;;8.50;1.00;;;;;;;;;;6086210;23;20026;-58
2023/10/15 06:21:30;;;;;;;;;;;;;;;;;;6084141;23;20515;-64
2023/10/15 06:24:30;;;;;;;6.45;1.13;;;;;;;;;;6083880;23;20181;-63
2023/10/15 06:27:18;;;;;;;2.25;0.80;;;;;;;;;;6086119;23;20118;-65
2023/10/15 06:30:16;;;;;;;8.32;0.82;;;;;;;;;;6086834;23;20046;-63
2023/10/15 06:33:02;;;;;;;3.03;0.55;;;;;;;;;;6086680;23;20402;-63
2023/10/15 06:35:57;;;;;;;4.07;1.00;;;;;;;;;;6086571;23;20093;-63
2023/10/15 06:38:44;;;;;;;1.52;1.08;;;;;;;;;;6081025;23;20026;-62
2023/10/15 06:41:17;;;;;;;6.03;1.15;;;;;;;;;;6086050;23;20755;-64
2023/10/15 06:44:08;;;;;;;4.97;0.88;;;;;;;;;;6085332;23;20033;-64
2023/10/15 06:46:58;;;;;;;4.57;1.25;;;;;;;;;;6083717;23;20030;-64
2023/10/15 06:49:46;;;;;;;5.88;0.73;;;;;;;;;;6082821;23;20027;-64
2023/10/15 06:52:40;;;;;;;1.42;0.65;;;;;;;;;;6084237;23;20476;-63
2023/10/15 06:55:28;;;;;;;1.43;0.60;;;;;;;;;;6083600;23;20022;-63
2023/10/15 06:58:21;;;;;;;3.25;0.63;;;;;;;;;;6084435;23;20029;-65
2023/10/15 07:01:10;;;;;;;2.78;0.77;;;;;;;;;;6083032;23;20121;-61
2023/10/15 07:04:06;;;;;;;2.67;1.00;;;;;;;;;;6082560;23;20530;-62
2023/10/15 07:06:50;;;;;;;2.17;0.82;;;;;;;;;;6079895;23;20018;-62
2023/10/15 07:09:44;;;;;;;4.13;0.95;;;;;;;;;;6080077;23;20026;-62
2023/10/15 07:12:32;;;;;;;4.75;1.45;;;;;;;;;;6082443;23;20022;-63
2023/10/15 07:15:25;;;;;;;5.18;1.13;;;;;;;;;;6081068;23;20082;-47
2023/10/15 07:18:13;;;;;;;3.28;0.90;;;;;;;;;;6081859;23;20026;-59
2023/10/15 07:21:13;;;;;;;4.55;1.15;;;;;;;;;;6081338;23;20030;-58
2023/10/15 07:24:11;;;;;;;5.82;0.88;;;;;;;;;;6082441;23;20449;-58
2023/10/15 07:27:01;;;;;;;5.63;1.10;;;;;;;;;;6082415;23;20022;-57
2023/10/15 07:29:55;;;;;;;3.42;0.80;;;;;;;;;;6083900;23;20022;-57
2023/10/15 07:32:44;;;;;;;4.18;0.68;;;;;;;;;;6084009;23;20030;-65
2023/10/15 07:35:39;;;;;;;3.00;1.02;;;;;;;;;;6085057;23;20032;-49
2023/10/15 07:38:26;;;;;;;9.98;1.40;;;;;;;;;;6083764;23;20027;-61
2023/10/15 07:41:20;;;;;;;3.45;0.68;;;;;;;;;;6082460;23;20365;-62
2023/10/15 07:44:08;;;;;;;1.67;0.73;;;;;;;;;;6084958;23;20644;-61
2023/10/15 07:47:02;;;;;;;4.68;1.23;;;;;;;;;;6084217;23;20633;-60
2023/10/15 07:49:55;;;;;;;3.63;1.00;;;;;;;;;;6084286;23;20077;-61
2023/10/15 07:52:48;;;;;;;5.57;0.90;;;;;;;;;;6082205;23;20023;-64
2023/10/15 07:55:36;;;;;;;4.95;0.93;;;;;;;;;;6082443;23;20022;-65
2023/10/15 07:58:30;;;;;;;2.00;0.70;;;;;;;;;;6084304;23;20046;-65
2023/10/15 08:01:17;;;;;;;4.53;1.25;;;;;;;;;;6083874;23;20484;-65
2023/10/15 08:04:11;;;;;;;2.55;1.10;;;;;;;;;;6085326;23;20097;-65
2023/10/15 08:06:58;;;;;;;2.90;1.05;;;;;;;;;;6080711;23;20448;-64
2023/10/15 08:09:52;;;;;;;8.07;1.00;;;;;;;;;;6083283;23;20477;-61
2023/10/15 08:12:48;;;;;;;3.97;1.00;;;;;;;;;;6081488;23;20400;-62
2023/10/15 08:15:34;;;;;;;3.20;0.90;;;;;;;;;;6084214;23;20022;-60
2023/10/15 08:18:28;;;;;;;3.45;1.13;;;;;;;;;;6084919;23;20685;-61
2023/10/15 08:21:22;;;;;;;2.83;1.00;;;;;;;;;;6083225;23;20413;-61
2023/10/15 08:24:22;;;;;;;1.85;0.90;;;;;;;;;;6085118;23;20028;-61
2023/10/15 08:27:13;;;;;;;2.80;1.20;;;;;;;;;;6083960;23;20026;-62
2023/10/15 08:30:04;;;;;;;4.22;0.95;;;;;;;;;;6083786;23;20026;-49
2023/10/15 08:32:51;;;;;;;3.90;0.70;;;;;;;;;;6084514;23;20027;-51
2023/10/15 08:35:44;;;;;;;4.45;1.00;;;;;;;;;;6084289;23;20030;-48
2023/10/15 08:38:32;;;;;;;1.67;0.90;;;;;;;;;;6084304;23;20074;-53
2023/10/15 08:41:25;;;;;;;5.53;1.23;;;;;;;;;;6084702;23;20026;-53
2023/10/15 08:44:19;;;;;;;3.50;1.08;;;;;;;;;;6084797;23;20029;-52
2023/10/15 08:47:10;;;;;;;3.15;0.77;;;;;;;;;;6083169;23;20093;-59
2023/10/15 08:50:06;;;;;;;2.33;0.73;;;;;;;;;;6084439;23;20026;-61
2023/10/15 08:52:53;;;;;;;3.35;0.98;;;;;;;;;;6083667;23;20023;-61
2023/10/15 08:55:47;;;;;;;2.80;0.73;;;;;;;;;;6083456;23;20026;-61
2023/10/15 08:58:35;;;;;;;4.78;0.88;;;;;;;;;;6082038;23;20348;-61
2023/10/15 09:01:29;;;;;;;4.25;1.08;;;;;;;;;;6083648;23;20033;-61
2023/10/15 09:04:16;;;;;;;3.63;0.80;;;;;;;;;;6084351;23;20105;-61
2023/10/15 09:07:11;;;;;;;3.08;1.15;;;;;;;;;;6082259;23;20166;-64
2023/10/15 09:10:00;;;;;;;5.22;1.20;;;;;;;;;;6083775;23;20050;-62
2023/10/15 09:12:52;;;;;;;1.80;0.90;;;;;;;;;;6081180;23;20026;-63
2023/10/15 09:15:40;;;;;;;2.28;0.95;;;;;;;;;;6081515;23;20086;-62
2023/10/15 09:18:35;;;;;;;3.85;1.10;;;;;;;;;;6083829;23;20023;-62
2023/10/15 09:21:29;;;;;;;2.67;1.52;;;;;;;;;;6081789;23;20026;-62
2023/10/15 09:24:31;;;;;;;2.05;0.98;;;;;;;;;;6083216;23;20050;-63
2023/10/15 09:27:18;;;;;;;1.75;0.80;;;;;;;;;;6079898;23;20026;-65
2023/10/15 09:30:18;;;;;;;3.78;0.90;;;;;;;;;;6081723;23;20019;-64
2023/10/15 09:33:12;;;;;;;3.53;1.02;;;;;;;;;;6084688;23;20094;-65
2023/10/15 09:36:02;;;;;;;3.47;1.15;;;;;;;;;;6082139;23;20041;-65
2023/10/15 09:38:48;;;;;;;3.27;0.80;;;;;;;;;;6083120;23;20061;-64
2023/10/15 09:41:42;;;;;;;3.25;0.82;;;;;;;;;;6082868;23;20082;-64
2023/10/15 09:44:32;;;;;;;3.17;0.93;;;;;;;;;;6082822;23;20026;-59
2023/10/15 09:47:24;;;;;;;2.97;1.10;;;;;;;;;;6082394;23;20030;-62
2023/10/15 09:50:15;;;;;;;3.47;0.90;;;;;;;;;;6084081;23;20403;-61
2023/10/15 09:53:12;;;;;;;2.28;0.70;;;;;;;;;;6082382;23;20057;-62
2023/10/15 09:55:59;;;;;;;1.05;0.82;;;;;;;;;;6082407;23;20026;-62
2023/10/15 09:58:53;;;;;;;4.97;1.33;;;;;;;;;;6079577;23;20026;-62
2023/10/15 10:01:53;;;;;;;3.13;1.02;;;;;;;;;;6083174;23;20086;-64
2023/10/15 10:05:01;;;;;;;3.88;1.23;;;;;;;;;;6082968;23;20409;-58
2023/10/15 10:07:53;;;;;;;4.25;1.20;;;;;;;;;;6084922;23;20023;-59
2023/10/15 10:10:56;;;;;;;4.18;1.25;;;;;;;;;;6083789;23;20090;-59
2023/10/15 10:13:53;;;;;;;3.15;0.90;;;;;;;;;;6081752;23;20042;-59
2023/10/15 10:16:46;;;;;;;3.15;0.90;;;;;;;;;;6082444;23;20353;-59
2023/10/15 10:19:34;;;;;;;2.53;0.93;;;;;;;;;;6083886;23;20432;-59
2023/10/15 10:22:34;;;;;;;2.00;0.88;;;;;;;;;;6081120;23;20337;-59
2023/10/15 10:25:42;;;;;;;4.03;0.98;;;;;;;;;;6081750;23;20048;-59
2023/10/15 10:28:36;;;;;;;3.58;0.90;;;;;;;;;;6082863;23;20492;-60
2023/10/15 10:31:24;;;;;;;1.63;0.90;;;;;;;;;;6083587;23;20022;-60
2023/10/15 10:34:28;;;;;;;2.72;1.00;;;;;;;;;;6084597;23;20457;-58
2023/10/15 10:37:22;;;;;;;2.20;0.80;;;;;;;;;;6082335;23;20026;-64
2023/10/15 10:40:35;;;;;;;4.97;1.20;;;;;;;;;;6082734;23;20029;-64
2023/10/15 10:43:24;;;;;;;1.30;0.88;;;;;;;;;;6085284;23;20426;-63
2023/10/15 10:46:43;;;;;;;2.05;1.10;;;;;;;;;;6082692;23;20090;-64
2023/10/15 10:49:40;;;;;;;3.15;0.93;;;;;;;;;;6085778;23;20022;-64
2023/10/15 10:52:47;;;;;;;2.85;1.17;;;;;;;;;;6082327;23;20412;-64
2023/10/15 10:55:30;;;;;;;4.22;1.23;;;;;;;;;;6084375;23;20022;-54
2023/10/15 10:58:24;;;;;;;2.45;1.13;;;;;;;;;;6083514;23;20027;-54
2023/10/15 11:01:19;;;;;;;1.95;0.95;;;;;;;;;;6080071;23;20124;-51
2023/10/15 11:04:15;;;;;;;3.67;1.17;;;;;;;;;;6082394;23;20082;-54
2023/10/15 11:07:07;;;;;;;4.75;1.40;;;;;;;;;;6075420;23;20070;-52
2023/10/15 11:09:53;;;;;;;4.65;1.70;;;;;;;;;;6079013;23;20019;-53
2023/10/15 11:12:46;;;;;;;3.28;1.33;;;;;;;;;;6079668;23;20030;-52
2023/10/15 11:15:41;;;;;;;3.35;1.40;;;;;;;;;;6076886;23;20093;-61
2023/10/15 11:18:36;;;;;;;2.88;1.23;;;;;;;;;;6075744;23;20030;-56
2023/10/15 11:21:28;;;;;;;2.47;0.88;;;;;;;;;;6077680;23;20026;-56
2023/10/15 11:24:23;;;;;;;2.38;0.85;;;;;;;;;;6076022;23;20089;-54
2023/10/15 11:27:12;;;;;;;1.42;0.90;;;;;;;;;;6080011;23;20430;-53
2023/10/15 11:30:05;;;;;;;2.33;0.70;;;;;;;;;;6073408;23;20516;-54
2023/10/15 11:32:51;;;;;;;2.58;0.95;;;;;;;;;;6047838;23;20079;-63
2023/10/15 11:35:48;;;;;;;2.58;0.85;;;;;;;;;;6049325;23;20027;-64
2023/10/15 11:38:37;;;;;;;2.33;0.82;;;;;;;;;;6050597;23;20723;-63
2023/10/15 11:41:32;;;;;;;5.60;1.13;;;;;;;;;;6047724;23;20477;-64
2023/10/15 11:44:25;;;;;;;1.92;0.88;;;;;;;;;;6049129;23;20465;-64
2023/10/15 11:47:20;;;;;;;2.50;0.95;;;;;;;;;;6048615;23;20026;-63
2023/10/15 11:50:07;;;;;;;1.88;0.85;;;;;;;;;;6048332;23;20074;-54
2023/10/15 11:52:58;;;;;;;2.72;1.05;;;;;;;;;;6049651;23;20766;-51
2023/10/15 11:55:52;;;;;;;2.00;1.00;;;;;;;;;;6049172;23;20026;-61
2023/10/15 11:58:45;;;;;;;2.20;1.15;;;;;;;;;;6047977;23;20031;-61
2023/10/15 12:01:30;;;;;;;3.55;1.10;;;;;;;;;;6045278;23;20037;-61
2023/10/15 12:04:24;;;;;;;4.15;0.75;;;;;;;;;;6045428;23;20026;-61
2023/10/15 12:07:21;;;;;;;1.60;0.73;;;;;;;;;;6049694;23;20138;-61
2023/10/15 12:10:16;;;;;;;1.35;0.57;;;;;;;;;;6046979;23;20106;-58
2023/10/15 12:13:03;;;;;;;1.42;0.93;;;;;;;;;;6050122;23;20465;-53
2023/10/15 12:15:56;;;;;;;4.32;0.90;;;;;;;;;;6050716;23;20030;-54
2023/10/15 12:18:44;;;;;;;2.88;0.88;;;;;;;;;;6051081;23;20389;-53
2023/10/15 12:21:44;;;;;;;5.32;1.13;;;;;;;;;;6047033;23;20034;-53
2023/10/15 12:24:35;;;;;;;1.52;0.70;;;;;;;;;;6048023;23;20090;-53
2023/10/15 12:27:28;;;;;;;2.25;0.73;;;;;;;;;;6050558;23;20050;-59
2023/10/15 12:30:34;;;;;;;1.95;0.88;;;;;;;;;;6047690;23;20514;-61
2023/10/15 12:33:07;;;;;;;3.47;0.75;;;;;;;;;;6047609;23;20465;-61
2023/10/15 12:35:54;;;;;;;2.80;0.70;;;;;;;;;;6049080;23;20162;-60
2023/10/15 12:38:48;;;;;;;2.15;0.90;;;;;;;;;;6049237;23;20031;-61
2023/10/15 12:41:41;;;;;;;2.15;0.80;;;;;;;;;;6048938;23;20134;-61
2023/10/15 12:44:39;;;;;;;2.58;0.90;;;;;;;;;;6050997;23;20106;-60
2023/10/15 12:47:22;;;;;;;1.58;0.63;;;;;;;;;;6048832;23;20031;-63
2023/10/15 12:50:16;;;;;;;2.35;0.88;;;;;;;;;;6048247;23;20026;-63
2023/10/15 12:53:03;;;;;;;1.35;0.80;;;;;;;;;;6050483;23;20027;-63
2023/10/15 12:55:56;;;;;;;5.25;1.10;;;;;;;;;;6052004;23;20380;-63
2023/10/15 12:58:45;;;;;;;2.88;1.00;;;;;;;;;;6048797;23;20166;-63
2023/10/15 13:01:40;;;;;;;1.92;1.00;;;;;;;;;;6047658;23;20073;-65
2023/10/15 13:04:25;;;;;;;2.05;0.90;;;;;;;;;;6050415;23;20022;-60
2023/10/15 13:07:19;;;;;;;7.07;1.15;;;;;;;;;;6052300;23;20030;-61
2023/10/15 13:10:09;;;;;;;2.47;0.93;;;;;;;;;;6049771;23;20497;-61
2023/10/15 13:13:01;;;;;;;1.98;0.82;;;;;;;;;;6051442;23;20023;-60
2023/10/15 13:15:48;;;;;;;1.02;0.60;;;;;;;;;;6053202;23;20413;-61
2023/10/15 13:18:41;;;;;;;1.52;0.70;;;;;;;;;;6053181;23;20031;-60
2023/10/15 13:21:35;;;;;;;2.10;0.80;;;;;;;;;;6048593;23;20339;-61
2023/10/15 13:24:28;;;;;;;2.83;1.33;;;;;;;;;;6046861;23;20026;-64
2023/10/15 13:27:16;;;;;;;1.85;0.93;;;;;;;;;;6028048;23;20079;-59
2023/10/15 13:30:12;;;;;;;3.65;0.93;;;;;;;;;;6052367;23;20035;-59
2023/10/15 13:32:58;;;;;;;1.98;0.82;;;;;;;;;;6051624;23;20110;-60
2023/10/15 13:35:51;;;;;;;3.13;0.70;;;;;;;;;;6049946;23;20548;-59
2023/10/15 13:38:45;;;;;;;3.70;1.00;;;;;;;;;;6051099;23;20031;-59
2023/10/15 13:41:39;;;;;;;2.70;0.93;;;;;;;;;;6051082;23;20098;-58
2023/10/15 13:44:27;;;;;;;3.80;1.10;;;;;;;;;;6046252;23;20097;-63
2023/10/15 13:47:21;;;;;;;2.20;0.75;;;;;;;;;;6048267;23;20030;-63
2023/10/15 13:50:18;;;;;;;3.95;0.85;;;;;;;;;;6047972;23;20078;-63
2023/10/15 13:53:12;;;;;;;2.50;0.90;;;;;;;;;;6047086;23;20026;-64
2023/10/15 13:56:00;;;;;;;2.85;0.95;;;;;;;;;;6049886;23;20252;-63
2023/10/15 13:58:59;;;;;;;1.60;0.90;;;;;;;;;;6045987;23;20752;-53
2023/10/15 14:01:47;;;;;;;1.73;0.80;;;;;;;;;;6049584;23;20061;-53
2023/10/15 14:04:43;;;;;;;2.22;0.75;;;;;;;;;;6048949;23;20051;-58
2023/10/15 14:07:29;;;;;;;1.63;0.70;;;;;;;;;;6046289;23;20023;-55
2023/10/15 14:10:22;;;;;;;1.60;0.90;;;;;;;;;;6052927;23;20094;-51
2023/10/15 14:13:10;;;;;;;3.08;0.70;;;;;;;;;;6051564;23;20086;-53
2023/10/15 14:16:04;;;;;;;3.05;0.65;;;;;;;;;;6049058;23;20027;-52
2023/10/15 14:18:51;;;;;;;4.00;1.10;;;;;;;;;;6051407;23;20029;-56
2023/10/15 14:21:51;;;;;;;2.22;0.88;;;;;;;;;;6051818;23;20315;-61
2023/10/15 14:24:38;;;;;;;3.78;1.33;;;;;;;;;;6052629;23;20037;-61
2023/10/15 14:27:33;;;;;;;2.97;1.20;;;;;;;;;;6054524;23;20035;-61
2023/10/15 14:30:20;;;;;;;2.00;0.80;;;;;;;;;;6055783;23;20027;-60
2023/10/15 14:33:13;;;;;;;2.90;0.90;;;;;;;;;;6053687;23;20070;-61
2023/10/15 14:36:03;;;;;;;2.97;0.95;;;;;;;;;;6054956;23;20194;-61
2023/10/15 14:38:55;;;;;;;5.00;0.93;;;;;;;;;;6053468;23;20026;-63
2023/10/15 14:41:42;;;;;;;2.95;0.73;;;;;;;;;;6053092;23;20031;-63
2023/10/15 14:44:36;;;;;;;2.75;0.90;;;;;;;;;;6052874;23;20328;-63
2023/10/15 14:47:23;;;;;;;4.43;1.33;;;;;;;;;;6051533;23;20082;-63
2023/10/15 14:50:18;;;;;;;5.20;1.20;;;;;;;;;;6051800;23;20414;-63
2023/10/15 14:53:04;;;;;;;3.03;1.13;;;;;;;;;;6051431;23;20026;-64
2023/10/15 14:55:57;;;;;;;3.75;1.40;;;;;;;;;;6053296;23;20421;-51
2023/10/15 14:58:59;;;;;;;6.75;1.30;;;;;;;;;;6054228;23;20038;-52
2023/10/15 15:01:46;;;;;;;5.78;1.38;;;;;;;;;;6051204;23;20698;-52
2023/10/15 15:04:40;;;;;;;5.43;1.30;;;;;;;;;;6050746;23;20524;-53
2023/10/15 15:07:27;;;;;;;4.55;1.50;;;;;;;;;;6051677;23;20023;-53
2023/10/15 15:10:20;;;;;;;3.88;1.38;;;;;;;;;;6051622;23;20027;-53
2023/10/15 15:13:09;;;;;;;4.57;1.40;;;;;;;;;;6051118;23;20034;-61
2023/10/15 15:16:02;;;;;;;5.45;1.40;;;;;;;;;;6047685;23;20454;-64
2023/10/15 15:18:49;;;;;;;2.45;1.20;;;;;;;;;;6052364;23;20025;-64
2023/10/15 15:21:57;;;;;;;4.95;1.77;;;;;;;;;;6052704;23;20054;-64
2023/10/15 15:24:49;;;;;;;2.70;1.23;;;;;;;;;;6053817;23;20472;-64
2023/10/15 15:27:44;;;;;;;5.20;1.33;;;;;;;;;;6052612;23;20484;-64
2023/10/15 15:30:33;;;;;;;4.32;1.55;;;;;;;;;;6051423;23;20045;-64
2023/10/15 15:33:27;;;;;;;2.00;0.90;;;;;;;;;;6049394;23;20082;-65
2023/10/15 15:36:15;;;;;;;2.53;1.10;;;;;;;;;;6051955;23;20027;-60
2023/10/15 15:39:09;;;;;;;2.38;1.38;;;;;;;;;;6051712;23;20027;-61
2023/10/15 15:41:55;;;;;;;5.07;1.85;;;;;;;;;;6048694;23;20027;-62
2023/10/15 15:44:52;;;;;;;5.30;1.42;;;;;;;;;;6055812;23;20030;-61
2023/10/15 15:47:40;;;;;;;2.83;1.42;;;;;;;;;;6046792;23;20023;-61
2023/10/15 15:50:34;;;;;;;3.85;1.15;;;;;;;;;;6051855;23;20046;-62
2023/10/15 15:53:21;;;;;;;3.97;1.23;;;;;;;;;;6054392;23;20034;-64
2023/10/15 15:56:15;;;;;;;3.33;1.10;;;;;;;;;;6050980;23;20029;-65
2023/10/15 15:59:02;;;;;;;4.43;1.33;;;;;;;;;;6053495;23;20086;-63
2023/10/15 16:01:56;;;;;;;5.47;1.10;;;;;;;;;;6052947;23;20019;-63
2023/10/15 16:04:43;;;;;;;5.78;0.80;;;;;;;;;;6052137;23;20031;-63
2023/10/15 16:07:37;;;;;;;10.75;1.55;;;;;;;;;;6051441;23;20023;-61
2023/10/15 16:10:27;;;;;;;6.95;1.38;;;;;;;;;;6050590;23;20050;-63
2023/10/15 16:13:21;;;;;;;6.35;1.50;;;;;;;;;;6052677;23;20106;-50
2023/10/15 16:16:08;;;;;;;6.75;1.02;;;;;;;;;;6052803;23;20612;-51
2023/10/15 16:19:03;;;;;;;6.18;1.35;;;;;;;;;;6053352;23;20026;-51
2023/10/15 16:21:55;;;;;;;5.68;1.30;;;;;;;;;;6054577;23;20027;-51
2023/10/15 16:24:55;;;;;;;4.72;1.15;;;;;;;;;;6054881;23;20033;-52
2023/10/15 16:27:43;;;;;;;2.72;1.20;;;;;;;;;;6051009;23;20038;-63
2023/10/15 16:30:37;;;;;;;6.13;1.17;;;;;;;;;;6053896;23;20129;-58
2023/10/15 16:33:31;;;;;;;4.88;1.80;;;;;;;;;;6053272;23;20038;-57
2023/10/15 16:36:18;;;;;;;10.25;1.90;;;;;;;;;;6052933;23;20051;-58
2023/10/15 16:39:17;;;;;;;3.83;1.08;;;;;;;;;;6052913;23;20094;-57
2023/10/15 16:41:59;;;;;;;7.93;1.88;;;;;;;;;;6051856;23;20026;-57
2023/10/15 16:44:53;;;;;;;3.83;1.38;;;;;;;;;;6052111;23;20418;-52
2023/10/15 16:47:41;;;;;;;6.68;2.28;;;;;;;;;;6051385;23;20098;-59
2023/10/15 16:50:34;;;;;;;5.90;1.85;;;;;;;;;;6051335;23;20031;-59
2023/10/15 16:53:48;;;;;;;3.88;1.33;;;;;;;;;;6052114;23;20023;-57
2023/10/15 16:56:35;;;;;;;4.50;1.52;;;;;;;;;;6053075;23;20053;-57
2023/10/15 16:59:29;;;;;;;10.45;1.25;;;;;;;;;;6051707;23;20033;-59
2023/10/15 17:02:16;;;;;;;8.90;1.45;;;;;;;;;;6051355;23;20026;-59
2023/10/15 17:05:10;;;;;;;4.68;1.15;;;;;;;;;;6053480;23;20019;-63
2023/10/15 17:08:04;;;;;;;7.55;1.30;;;;;;;;;;6050096;23;20049;-61
2023/10/15 17:10:58;;;;;;;2.30;1.70;;;;;;;;;;6054004;23;20027;-60
2023/10/15 17:13:45;;;;;;;5.00;2.03;;;;;;;;;;6052061;23;20027;-61